Airfield :
LOGIN :

Register | Disclaimer

   EN    FR    IT 

 










Legend :    VFR   Marginal VFR   IFR   Intensive IFR   Very Intensive IFR
Visi :
Ceiling :
>= 8 km
>= 3000ft
5 to 8 km
1000 to 3000 ft
1500m to 5 km
500 to 1000 ft
800 to 1500m
200 to 500 ft
< 800m
< 200 ft
Symbols :   Thunderstorms  Fog  Heavy snow  Heavy precipitations  Wind > 20 kt
SIGMETs :     Misc.  Thunderstorms  Icing  Turbulence  Mountain Waves  Volcanic Ashes






- Airport Elevation : 408 ft
- IATA code : SOB


LHSM - Sarmellek Balaton

CURRENT METAR :
  • 201615Z AUTO 08007KT 050V120 5000 -SHRA BR BKN004 //////TCU 09/09 Q1011

EXPIRED METARs :
  • 201545Z AUTO 09006KT 060V130 4800 -SHRA BR OVC003 //////TCU 09/09 Q1011
  • 201515Z AUTO 09007KT 050V120 3800 -RA OVC004 //////TCU 09/09 Q1011
  • 201445Z AUTO 09008KT 050V110 3400 -RA BKN005 09/09 Q1011 NOSIG
  • 201415Z AUTO 08009KT 050V110 3800 -RA BR BKN004 //////TCU 09/09 Q1011 NOSIG
  • 201345Z AUTO 08011KT 050V110 3600 -RA BR BKN005 //////TCU 09/09 Q1011 RERA NOSIG

TAF TAF LHSM
Valid from the 20 at 12:00 until the 20 at 21:00 UTC


201115Z 2012/2021 08010KT 6000 BKN020 BKN070
TEMPO 2012/2021 2500 RA BR SCT003 OVC008



MET'MAP, your aeronautical weather chart ! - Copyright ORBIFLY December 2007 - Disclaimer

ORBIFLY MET'MAP TEAM :

Programming & Development : Alexandra Zaïnal
Concept & Development : Baudouin d'Aumeries
Co-Development & Prog : Marc-Olivier Méhu
Technical & hardware support : Manuel Goepfert

Contact : metmap@orbifly.com




SOURCES & CREDITS :

   NOAA